Terminal Aerodrome Forecast
Issued by NWS Grand Forks, ND

Current Version | Previous Version | Text Only | Print | Product List | Glossary On
Versions: 1 2 3 4 5 6 7 8 9 10 11 12 13 14 15 16
000
FTUS43 KFGF 221700
TAFGFK
TAF
KGFK 221727Z 2218/2318 08009KT 2SM -DZ BR OVC005
     FM230000 03010KT 1 1/2SM -RASN OVC004
     FM230600 01010KT 1 1/2SM -SN OVC007
     FM230900 36010KT 1 1/2SM -SN OVC004
     FM231100 36011KT 2SM -SN OVC007=

USA.gov is the U.S. government's official web portal to all federal, state and local government web resources and services.